Latest Weather Observations for Norah Head

IDN60901

Issued at 8:35 pm EDT Saturday 1 November 2014 (issued every 10 minutes, with the page automatically refreshed every 10 minutes)

About weather observations | Map of Sydney area stations | Latest observations for Sydney area | Other Formats
Station Details ID: 061366 Name: NORAH HEAD AWS Lat: -33.28 Lon: 151.58 Height: 18.8 m
Data from the previous 72 hours. | See also: Recent months at Norah Head
Date/Time
EDT
Tmp

°C
App
Tmp
°C
Dew
Point
°C
Rel
Hum
%
Delta-T

°C
Wind Press
QNH
hPa
Press
MSL
hPa
Rain
since
9 am
mm
Dir
 
Spd
km/h
Gust
km/h
Spd
kts
Gust
kts
01/08:30pm 24.1 23.7 15.3 58 5.3 W 11 22 6 12 1005.3 1005.3 1.2
01/08:00pm 24.4 23.2 15.1 56 5.6 W 15 30 8 16 1004.1 1004.1 1.2
01/07:30pm 24.1 23.4 15.3 58 5.3 W 13 24 7 13 1003.1 1003.1 1.2
01/07:00pm 24.2 22.0 14.9 56 5.6 WSW 20 33 11 18 1002.6 1002.6 1.2
01/06:30pm 25.9 22.8 15.6 53 6.3 SSW 26 37 14 20 1001.1 1001.1 1.2
01/06:00pm 27.1 28.9 18.7 60 5.4 WSW 7 13 4 7 1000.0 1000.0 1.2
01/05:30pm 26.1 29.3 19.7 68 4.1 NW 2 7 1 4 999.7 999.7 1.2
01/05:00pm 25.7 26.2 18.4 64 4.7 W 13 26 7 14 999.2 999.2 1.2
01/04:30pm 26.1 27.4 18.5 63 4.8 W 9 19 5 10 998.9 998.9 0.6
01/04:00pm 26.0 25.8 18.4 63 4.9 W 17 48 9 26 998.8 998.8 0.4
01/03:54pm 27.1 25.4 15.8 50 6.9 W 19 48 10 26 999.0 999.0 0.0
01/03:30pm 32.1 30.8 14.7 35 10.7 WNW 15 30 8 16 997.5 997.5 0.0
01/03:00pm 32.1 27.5 14.7 35 10.7 NNW 32 52 17 28 997.8 997.8 0.0
01/02:38pm 33.6 29.0 15.1 33 11.5 NNW 33 52 18 28 997.9 997.9 0.0
01/02:30pm 32.5 28.7 14.6 34 11.0 NNW 28 41 15 22 998.2 998.2 0.0
01/02:00pm 34.6 33.0 15.0 31 12.2 NW 17 33 9 18 999.1 999.1 0.0
01/01:30pm 33.6 30.1 15.6 34 11.3 NW 28 48 15 26 999.3 999.3 0.0
01/01:00pm 32.9 29.1 15.8 35 10.7 NW 30 48 16 26 999.8 999.8 0.0
01/12:32pm 33.3 29.7 15.3 34 11.2 NNW 28 48 15 26 1000.1 1000.1 0.0
01/12:30pm 33.5 30.7 16.4 36 10.8 NW 26 48 14 26 1000.3 1000.3 0.0
01/12:07pm 32.6 29.0 17.2 39 9.8 NNW 32 52 17 28 1001.0 1001.0 0.0
01/12:00pm 32.0 26.1 14.6 34 10.7 NNW 39 54 21 29 1000.9 1000.9 0.0
01/11:52am 31.7 26.6 14.8 36 10.4 NNW 35 54 19 29 1001.0 1001.0 0.0
01/11:30am 31.1 26.1 15.1 38 9.8 NNW 35 48 19 26 1001.6 1001.6 0.0
01/11:00am 31.3 27.1 15.7 39 9.7 NNW 32 50 17 27 1002.4 1002.4 0.0
01/10:54am 31.0 26.9 15.0 38 9.8 NNW 30 50 16 27 1002.4 1002.4 0.0
01/10:30am 30.5 27.5 15.8 41 9.1 NNW 26 37 14 20 1003.1 1003.1 0.0
01/10:00am 29.0 27.4 15.9 45 8.1 NW 19 33 10 18 1003.7 1003.7 0.0
01/09:30am 28.3 24.2 15.9 47 7.6 NNW 32 41 17 22 1004.0 1004.0 0.0
01/09:00am 27.6 24.1 15.6 48 7.4 NNW 28 39 15 21 1004.6 1004.6 0.2
01/08:30am 26.0 22.4 16.3 55 6.0 NNW 30 35 16 19 1005.1 1005.1 0.2
01/08:00am 22.9 21.0 16.7 68 3.8 N 22 24 12 13 1005.4 1005.4 0.2
01/07:30am 22.8 20.6 16.8 69 3.7 N 24 26 13 14 1005.6 1005.6 0.2
01/07:00am 21.5 21.8 17.1 76 2.7 N 11 13 6 7 1006.1 1006.1 0.2
01/06:30am 21.1 20.5 16.7 76 2.7 N 15 19 8 10 1006.1 1006.1 0.2
01/06:00am 22.3 19.6 16.6 70 3.5 N 26 28 14 15 1006.0 1006.0 0.2
01/05:30am 22.1 18.6 16.4 70 3.5 N 30 33 16 18 1005.6 1005.6 0.0
01/05:00am 23.4 17.0 16.0 63 4.5 N 44 48 24 26 1004.9 1004.9 0.0
01/04:30am 23.4 17.2 16.0 63 4.5 N 43 54 23 29 1005.6 1005.6 0.0
01/04:00am 26.1 19.6 13.9 47 7.2 NNW 41 61 22 33 1005.1 1005.1 0.0
01/03:58am 26.3 20.1 13.8 46 7.4 NNW 39 59 21 32 1005.3 1005.3 0.0
01/03:41am 25.6 21.6 14.1 49 6.8 NNW 28 41 15 22 1005.2 1005.2 0.0
01/03:30am 23.4 23.8 15.2 60 4.9 N 7 13 4 7 1005.4 1005.4 0.0
01/03:00am 25.1 24.6 13.9 49 6.6 NW 9 24 5 13 1005.3 1005.3 0.0
01/02:30am 24.5 24.3 14.6 54 5.9 NW 9 15 5 8 1005.7 1005.7 0.0
01/02:00am 25.9 25.5 14.1 48 7.0 WNW 9 15 5 8 1005.9 1005.9 0.0
01/01:30am 26.3 25.8 13.8 46 7.4 WNW 9 19 5 10 1005.5 1005.5 0.0
01/01:00am 26.2 25.0 14.0 47 7.3 WNW 13 26 7 14 1005.9 1005.9 0.0
01/12:30am 22.0 22.0 17.2 74 2.9 NW 13 22 7 12 1006.7 1006.7 0.0
01/12:00am 20.5 20.5 19.0 91 0.9 NNW 17 20 9 11 1007.1 1007.1 0.0
 
Date/Time
EDT
Tmp

°C
App
Tmp
°C
Dew
Point
°C
Rel
Hum
%
Delta-T

°C
Wind Press
QNH
hPa
Press
MSL
hPa
Rain
since
9 am
mm
Dir
 
Spd
km/h
Gust
km/h
Spd
kts
Gust
kts
31/11:30pm 20.1 18.3 18.8 92 0.8 NNE 26 30 14 16 1006.4 1006.4 0.0
31/11:00pm 20.2 18.1 18.9 92 0.8 NNE 28 35 15 19 1006.6 1006.6 0.0
31/10:30pm 20.2 18.5 19.0 93 0.8 NNE 26 30 14 16 1006.8 1006.8 0.0
31/10:00pm 20.2 18.5 18.9 92 0.8 NNE 26 32 14 17 1007.0 1007.0 0.0
31/09:30pm 20.3 19.8 19.0 92 0.8 N 20 24 11 13 1007.4 1007.4 0.0
31/09:00pm 20.4 19.1 19.1 92 0.8 N 24 32 13 17 1007.3 1007.3 0.0
31/08:30pm 20.5 19.2 19.0 91 0.9 N 24 28 13 15 1007.2 1007.2 0.0
31/08:00pm 20.5 19.5 18.8 90 1.1 N 22 28 12 15 1007.0 1007.0 0.0
31/07:30pm 20.6 18.8 18.7 89 1.2 NNE 26 30 14 16 1007.0 1007.0 0.0
31/07:00pm 20.9 18.7 18.7 87 1.4 NNE 28 32 15 17 1006.8 1006.8 0.0
31/06:30pm 21.2 18.1 18.4 84 1.7 NNE 32 35 17 19 1006.7 1006.7 0.0
31/06:00pm 21.2 18.3 18.9 87 1.5 NNE 32 39 17 21 1006.6 1006.6 0.0
31/05:30pm 21.4 18.9 18.8 85 1.6 NNE 30 33 16 18 1006.8 1006.8 0.0
31/05:00pm 21.3 18.4 18.9 86 1.5 NNE 32 37 17 20 1006.9 1006.9 0.0
31/04:30pm 21.4 18.6 19.0 86 1.5 NNE 32 35 17 19 1007.0 1007.0 0.0
31/04:00pm 21.9 20.2 18.9 83 1.9 NNE 26 32 14 17 1007.6 1007.6 0.0
31/03:30pm 22.1 20.7 18.9 82 2.0 NE 24 28 13 15 1008.0 1008.0 0.0
31/03:00pm 23.5 22.1 19.6 79 2.5 NE 26 32 14 17 1008.4 1008.4 0.0
31/02:30pm 23.1 22.4 18.6 76 2.8 NE 20 24 11 13 1009.2 1009.2 0.0
31/02:00pm 25.4 26.2 19.1 68 4.0 NE 13 17 7 9 1009.9 1009.8 0.0
31/01:30pm 25.6 26.6 19.5 69 3.9 NE 13 15 7 8 1010.5 1010.4 0.0
31/01:00pm 24.5 25.0 18.4 69 3.9 ENE 13 15 7 8 1011.2 1011.1 0.0
31/12:30pm 24.6 25.9 19.4 73 3.3 ENE 11 13 6 7 1011.8 1011.7 0.0
31/12:00pm 23.3 24.7 18.6 75 3.0 E 9 11 5 6 1012.3 1012.2 0.0
31/11:30am 23.2 24.5 18.5 75 3.0 ESE 9 11 5 6 1012.8 1012.7 0.0
31/11:00am 23.1 24.8 18.6 76 2.8 SE 7 9 4 5 1013.2 1013.1 0.0
31/10:30am 22.5 24.0 18.1 76 2.7 SSE 7 7 4 4 1013.4 1013.3 0.0
31/10:00am 21.7 23.1 17.3 76 2.7 SSE 6 6 3 3 1013.4 1013.3 0.0
31/09:30am 21.1 23.2 17.1 78 2.4 SE 2 6 1 3 1013.3 1013.2 0.0
31/09:00am 20.8 22.7 16.8 78 2.4 SE 2 4 1 2 1013.3 1013.2 0.0
31/08:30am 20.7 22.8 17.1 80 2.2 SE 2 4 1 2 1013.1 1013.0 0.0
31/08:00am 20.4 22.8 17.0 81 2.1 CALM 0 0 0 0 1013.1 1013.0 0.0
31/07:30am 20.2 22.8 17.4 84 1.7 CALM 0 4 0 2 1013.2 1013.1 0.0
31/07:00am 18.9 20.2 16.1 84 1.7 SW 4 7 2 4 1013.2 1013.1 0.0
31/06:30am 18.5 19.1 15.7 84 1.7 SSW 7 9 4 5 1013.1 1013.0 0.0
31/06:00am 16.5 16.4 13.4 82 1.7 SW 6 9 3 5 1012.9 1012.8 0.0
31/05:30am 16.6 17.6 13.3 81 1.8 CALM 0 0 0 0 1012.7 1012.6 0.0
31/05:00am 17.3 18.7 14.4 83 1.7 CALM 0 0 0 0 1012.4 1012.3 0.0
31/04:30am 17.1 17.7 14.2 83 1.7 W 4 6 2 3 1012.2 1012.1 0.0
31/04:00am 17.2 19.0 15.5 90 1.0 CALM 0 6 0 3 1012.2 1012.1 0.0
31/03:30am 18.0 20.2 16.5 91 0.9 CALM 0 0 0 0 1012.2 1012.1 0.0
31/03:00am 18.2 20.6 16.9 92 0.8 CALM 0 0 0 0 1012.3 1012.2 0.0
31/02:30am 18.4 20.8 16.9 91 0.9 CALM 0 0 0 0 1012.4 1012.3 0.0
31/02:00am 18.3 20.5 16.6 90 1.0 CALM 0 0 0 0 1012.6 1012.5 0.0
31/01:30am 18.5 20.8 16.7 89 1.1 CALM 0 0 0 0 1013.0 1012.9 0.0
31/01:00am 18.5 20.7 16.5 88 1.2 CALM 0 0 0 0 1013.2 1013.1 0.0
31/12:30am 18.6 20.8 16.6 88 1.2 CALM 0 0 0 0 1013.4 1013.3 0.0
31/12:00am 18.4 20.4 16.0 86 1.4 CALM 0 0 0 0 1013.5 1013.4 0.0
 
Date/Time
EDT
Tmp

°C
App
Tmp
°C
Dew
Point
°C
Rel
Hum
%
Delta-T

°C
Wind Press
QNH
hPa
Press
MSL
hPa
Rain
since
9 am
mm
Dir
 
Spd
km/h
Gust
km/h
Spd
kts
Gust
kts
30/11:30pm 18.7 20.7 16.1 85 1.5 CALM 0 0 0 0 1013.7 1013.6 0.0
30/11:00pm 18.6 20.7 16.2 86 1.4 CALM 0 0 0 0 1013.7 1013.6 0.0
30/10:30pm 18.5 20.5 16.1 86 1.4 CALM 0 0 0 0 1013.6 1013.5 0.0
30/10:00pm 18.5 19.4 16.1 86 1.4 N 6 6 3 3 1013.5 1013.4 0.0
30/09:30pm 19.0 19.7 16.2 84 1.7 N 7 7 4 4 1013.5 1013.4 0.0
30/09:00pm 19.5 19.1 16.2 81 2.0 N 13 15 7 8 1013.3 1013.2 0.0
30/08:30pm 19.8 19.7 15.9 78 2.3 N 11 13 6 7 1013.1 1013.0 0.0
30/08:00pm 20.1 19.4 16.5 80 2.2 N 15 19 8 10 1012.9 1012.8 0.0
30/07:30pm 20.1 19.3 17.1 83 1.8 N 17 20 9 11 1012.6 1012.5 0.0
30/07:00pm 20.3 18.0 17.5 84 1.7 N 26 30 14 16 1012.1 1012.0 0.0
30/06:30pm 20.4 18.3 17.2 82 2.0 N 24 28 13 15 1011.8 1011.7 0.0
30/06:00pm 20.4 18.3 17.2 82 2.0 N 24 28 13 15 1011.6 1011.5 0.0
30/05:30pm 20.6 19.1 17.6 83 1.8 N 22 26 12 14 1011.5 1011.4 0.0
30/05:00pm 20.8 20.2 17.6 82 2.0 N 17 20 9 11 1011.6 1011.5 0.0
30/04:30pm 21.1 21.6 17.5 80 2.2 NNE 11 15 6 8 1011.8 1011.7 0.0
30/04:00pm 23.6 24.2 18.5 73 3.2 NE 13 17 7 9 1011.8 1011.7 0.0
30/03:30pm 22.5 22.1 17.2 72 3.3 NE 15 19 8 10 1012.1 1012.0 0.0
30/03:00pm 22.6 22.0 17.5 73 3.2 NE 17 19 9 10 1012.4 1012.3 0.0
30/02:30pm 24.1 23.8 18.3 70 3.7 ENE 17 19 9 10 1012.7 1012.6 0.0
30/02:00pm 22.9 23.3 18.2 75 2.9 ENE 13 17 7 9 1013.0 1012.9 0.0
30/01:30pm 21.2 20.8 16.2 73 3.0 ESE 13 15 7 8 1013.6 1013.5 0.0
30/01:00pm 21.1 20.3 16.1 73 3.0 ESE 15 19 8 10 1013.8 1013.7 0.0
30/12:30pm 21.5 21.0 16.0 71 3.3 ESE 13 15 7 8 1014.2 1014.1 0.0
30/12:00pm 21.7 21.4 16.4 72 3.2 ESE 13 13 7 7 1014.7 1014.6 0.0
30/11:30am 21.6 21.9 15.9 70 3.4 E 9 11 5 6 1014.8 1014.7 0.0
30/11:00am 21.9 22.6 16.0 69 3.6 E 7 9 4 5 1015.2 1015.1 0.0
30/10:30am 23.6 24.2 17.8 70 3.6 ENE 11 11 6 6 1015.3 1015.2 0.0
30/10:00am 21.7 22.3 15.3 67 3.8 E 6 7 3 4 1015.5 1015.4 0.0
30/09:30am 21.6 22.7 16.6 73 3.0 N 6 6 3 3 1015.7 1015.6 0.0
30/09:00am 21.2 21.7 15.5 70 3.4 NNW 7 11 4 6 1015.7 1015.6 0.0
30/08:30am 20.1 20.8 15.5 75 2.7 NNW 6 9 3 5 1015.5 1015.4 0.0
30/08:00am 18.1 18.8 14.6 80 2.0 WNW 4 11 2 6 1015.5 1015.4 0.0
30/07:30am 17.1 18.7 14.9 87 1.3 CALM 0 4 0 2 1015.4 1015.3 0.0
30/07:00am 16.2 17.0 14.9 92 0.7 W 4 9 2 5 1015.3 1015.2 0.0
30/06:30am 15.6 16.2 14.3 92 0.7 W 4 9 2 5 1015.1 1015.0 0.0
30/06:00am 15.6 17.0 14.3 92 0.7 CALM 0 0 0 0 1014.6 1014.5 0.0
30/05:30am 15.6 16.9 14.1 91 0.8 CALM 0 4 0 2 1014.7 1014.6 0.0
30/05:00am 16.2 17.0 14.9 92 0.7 W 4 7 2 4 1014.8 1014.7 0.0
30/04:30am 16.2 16.1 14.9 92 0.7 W 9 13 5 7 1014.8 1014.7 0.0
30/04:00am 16.8 17.3 15.0 89 1.0 W 6 9 3 5 1014.9 1014.8 0.0
30/03:30am 17.2 17.2 15.2 88 1.2 NNW 9 11 5 6 1014.8 1014.7 0.0
30/03:00am 17.9 16.9 15.5 86 1.4 N 15 17 8 9 1014.9 1014.8 0.0
30/02:30am 18.5 16.0 16.1 86 1.4 NNE 24 28 13 15 1014.9 1014.8 0.0
30/02:00am 18.5 15.9 15.9 85 1.5 NNE 24 28 13 15 1015.1 1015.0 0.0
30/01:30am 18.6 16.9 16.2 86 1.4 NNE 20 24 11 13 1015.6 1015.5 0.0
30/01:00am 18.6 15.7 16.0 85 1.5 NNE 26 30 14 16 1015.9 1015.8 0.0
30/12:30am 18.6 16.0 16.0 85 1.5 NNE 24 30 13 16 1016.3 1016.2 0.0
30/12:00am 18.6 14.8 15.7 83 1.7 NNE 30 33 16 18 1016.5 1016.4 0.0
 
Date/Time
EDT
Tmp

°C
App
Tmp
°C
Dew
Point
°C
Rel
Hum
%
Delta-T

°C
Wind Press
QNH
hPa
Press
MSL
hPa
Rain
since
9 am
mm
Dir
 
Spd
km/h
Gust
km/h
Spd
kts
Gust
kts
29/11:30pm 18.6 14.8 15.7 83 1.7 NNE 30 35 16 19 1016.6 1016.5 0.0
29/11:00pm 18.6 14.3 15.5 82 1.8 NNE 32 35 17 19 1016.7 1016.6 0.0
29/10:30pm 18.6 14.1 15.3 81 1.9 NNE 33 39 18 21 1016.7 1016.6 0.0
29/10:00pm 18.6 14.3 15.3 81 1.9 NNE 32 35 17 19 1016.9 1016.8 0.0
29/09:30pm 18.6 14.6 15.3 81 1.9 NNE 30 35 16 19 1017.0 1016.9 0.0
29/09:00pm 18.8 15.4 15.9 83 1.7 NNE 28 35 15 19 1016.8 1016.7 0.0

Latest Capital City Observations: Canberra | Sydney | Melbourne | Brisbane | Adelaide | Perth | Hobart | Darwin

Other Formats:

Comma delimited format used in spreadsheet applications
http://www.bom.gov.au/fwo/IDN60901/IDN60901.95770.axf

JavaScript Object Notation format (JSON) in row-major order
http://www.bom.gov.au/fwo/IDN60901/IDN60901.95770.json